createdAt,value
2023-10-12T00:00:26.749Z,23.50
2023-10-12T00:02:56.531Z,23.40
2023-10-12T00:05:33.899Z,23.40
2023-10-12T00:08:12.430Z,23.30
2023-10-12T00:10:51.968Z,23.30
2023-10-12T00:13:32.916Z,23.20
2023-10-12T00:16:13.557Z,23.10
2023-10-12T00:18:47.187Z,23.10
2023-10-12T00:21:31.403Z,23.10
2023-10-12T00:24:12.420Z,23.20
2023-10-12T00:26:43.928Z,23.00
2023-10-12T00:29:14.006Z,23.00
2023-10-12T00:31:48.969Z,22.90
2023-10-12T00:34:31.920Z,22.90
2023-10-12T00:37:12.833Z,22.90
2023-10-12T00:40:00.611Z,22.80
2023-10-12T00:42:47.280Z,22.80
2023-10-12T00:45:33.500Z,22.80
2023-10-12T00:48:11.644Z,22.70
2023-10-12T00:50:58.804Z,22.80
2023-10-12T00:53:38.857Z,23.00
2023-10-12T00:56:08.037Z,22.70
2023-10-12T00:58:51.398Z,22.90
2023-10-12T01:01:36.093Z,22.90
2023-10-12T01:04:20.062Z,22.90
2023-10-12T01:07:02.582Z,22.90
2023-10-12T01:09:40.907Z,23.00
2023-10-12T01:12:18.486Z,23.10
2023-10-12T01:14:56.133Z,23.10
2023-10-12T01:17:41.763Z,23.20
2023-10-12T01:20:20.408Z,23.20
2023-10-12T01:22:53.429Z,23.20
2023-10-12T01:25:32.804Z,23.30
2023-10-12T01:28:08.574Z,23.50
2023-10-12T01:30:41.751Z,23.30
2023-10-12T01:33:18.417Z,23.30
2023-10-12T01:35:55.938Z,23.60
2023-10-12T01:38:38.587Z,23.50
2023-10-12T01:41:15.072Z,23.40
2023-10-12T01:43:50.315Z,23.40
2023-10-12T01:46:28.186Z,23.40
2023-10-12T01:49:09.681Z,23.40
2023-10-12T01:51:46.834Z,23.50
2023-10-12T01:54:25.931Z,23.50
2023-10-12T01:56:54.873Z,23.50
2023-10-12T01:59:26.509Z,23.50
2023-10-12T02:02:11.839Z,23.40
2023-10-12T02:04:49.954Z,23.40
2023-10-12T02:07:29.333Z,23.30
2023-10-12T02:10:13.702Z,23.30
2023-10-12T02:12:51.865Z,23.30
2023-10-12T02:15:33.671Z,23.10
2023-10-12T02:18:15.332Z,23.20
2023-10-12T02:21:01.221Z,23.20
2023-10-12T02:23:39.719Z,23.20
2023-10-12T02:26:30.113Z,23.10
2023-10-12T02:29:15.101Z,23.10
2023-10-12T02:32:09.073Z,23.00
2023-10-12T02:34:48.856Z,23.10
2023-10-12T02:37:25.926Z,23.10
2023-10-12T02:40:17.455Z,23.10
2023-10-12T02:42:55.773Z,23.10
2023-10-12T02:45:38.139Z,23.10
2023-10-12T02:48:24.745Z,23.20
2023-10-12T02:51:07.813Z,23.10
2023-10-12T02:53:49.655Z,23.10
2023-10-12T02:56:28.280Z,23.10
2023-10-12T02:59:07.747Z,23.20
2023-10-12T03:01:43.189Z,23.10
2023-10-12T03:04:22.019Z,23.10
2023-10-12T03:07:13.567Z,23.10
2023-10-12T03:09:47.079Z,23.10
2023-10-12T03:12:25.190Z,23.10
2023-10-12T03:15:05.463Z,23.00
2023-10-12T03:17:49.303Z,23.00
2023-10-12T03:20:25.615Z,23.00
2023-10-12T03:23:01.375Z,23.00
2023-10-12T03:25:52.376Z,23.00
2023-10-12T03:28:30.949Z,23.10
2023-10-12T03:31:16.352Z,23.00
2023-10-12T03:33:48.026Z,23.00
2023-10-12T03:36:24.721Z,23.00
2023-10-12T03:39:22.403Z,23.00
2023-10-12T03:42:14.431Z,23.00
2023-10-12T03:44:52.751Z,22.90
2023-10-12T03:47:51.876Z,22.90
2023-10-12T03:50:24.743Z,23.00
2023-10-12T03:52:56.878Z,23.00
2023-10-12T03:55:47.080Z,22.90
2023-10-12T03:58:29.626Z,22.90
2023-10-12T04:01:13.759Z,22.90
2023-10-12T04:03:59.816Z,22.90
2023-10-12T04:06:54.532Z,23.10
2023-10-12T04:09:35.652Z,22.80
2023-10-12T04:12:20.975Z,22.80
2023-10-12T04:15:28.261Z,22.80
2023-10-12T04:18:08.637Z,22.70
2023-10-12T04:20:45.242Z,22.60
2023-10-12T04:23:39.293Z,22.70
2023-10-12T04:26:28.755Z,22.70
2023-10-12T04:29:00.444Z,22.60
2023-10-12T04:31:55.562Z,22.60
2023-10-12T04:34:27.336Z,22.50
2023-10-12T04:37:13.432Z,22.50
2023-10-12T04:40:01.107Z,22.50
2023-10-12T04:42:46.235Z,22.50
2023-10-12T04:45:28.572Z,22.40
2023-10-12T04:48:18.845Z,22.30
2023-10-12T04:50:58.211Z,22.30
2023-10-12T04:53:37.414Z,22.30
2023-10-12T04:56:14.475Z,22.20
2023-10-12T04:58:57.486Z,22.20
2023-10-12T05:01:30.491Z,22.10
2023-10-12T05:04:10.459Z,22.10
2023-10-12T05:06:47.572Z,22.10
2023-10-12T05:09:19.712Z,22.00
2023-10-12T05:11:51.403Z,22.00
2023-10-12T05:14:22.452Z,22.00
2023-10-12T05:16:52.480Z,21.90
2023-10-12T05:19:28.051Z,21.90
2023-10-12T05:22:03.729Z,21.90
2023-10-12T05:24:43.786Z,21.90
2023-10-12T05:27:24.763Z,21.90
2023-10-12T05:30:02.032Z,21.90
2023-10-12T05:32:44.453Z,21.80
2023-10-12T05:35:17.323Z,21.70
2023-10-12T05:37:50.511Z,21.80
2023-10-12T05:40:25.156Z,21.80
2023-10-12T05:42:58.195Z,21.90
2023-10-12T05:45:45.889Z,21.90
2023-10-12T05:48:23.928Z,21.80
2023-10-12T05:50:56.826Z,21.80
2023-10-12T05:53:33.437Z,21.80
2023-10-12T05:56:12.053Z,21.80
2023-10-12T05:58:50.883Z,21.70
2023-10-12T06:04:07.457Z,21.80
2023-10-12T06:06:57.935Z,21.80
2023-10-12T06:09:28.678Z,21.90
2023-10-12T06:12:07.507Z,21.80
2023-10-12T06:14:55.627Z,21.90
2023-10-12T06:17:36.568Z,21.90
2023-10-12T06:20:15.832Z,22.20
2023-10-12T06:22:57.559Z,22.20
2023-10-12T06:25:56.862Z,21.90
2023-10-12T06:28:43.123Z,21.90
2023-10-12T06:31:11.553Z,22.00
2023-10-12T06:33:43.227Z,21.90
2023-10-12T06:36:24.973Z,22.00
2023-10-12T06:39:27.658Z,22.00
2023-10-12T06:42:04.252Z,22.10
2023-10-12T06:44:51.693Z,22.10
2023-10-12T06:47:32.364Z,22.20
2023-10-12T06:50:06.024Z,22.30
2023-10-12T06:52:36.394Z,22.30
2023-10-12T06:55:10.365Z,22.30
2023-10-12T06:58:18.005Z,22.30
2023-10-12T07:01:23.660Z,22.30
2023-10-12T07:03:54.285Z,22.30
2023-10-12T07:06:25.584Z,22.20
2023-10-12T07:09:03.402Z,22.20
2023-10-12T07:11:40.893Z,22.00
2023-10-12T07:14:18.065Z,21.80
2023-10-12T07:16:56.483Z,21.50
2023-10-12T07:19:27.898Z,21.30
2023-10-12T07:22:10.023Z,21.20
2023-10-12T07:24:48.224Z,21.10
2023-10-12T07:27:20.307Z,21.00
2023-10-12T07:30:11.476Z,20.90
2023-10-12T07:32:57.717Z,20.90
2023-10-12T07:35:38.830Z,20.90
2023-10-12T07:38:14.459Z,20.80
2023-10-12T07:40:57.480Z,20.90
2023-10-12T07:43:33.472Z,20.80
2023-10-12T07:46:14.182Z,20.70
2023-10-12T07:48:53.358Z,20.70
2023-10-12T07:51:28.975Z,20.50
2023-10-12T07:57:27.620Z,20.60
2023-10-12T08:00:00.716Z,20.40
2023-10-12T08:03:05.588Z,20.50
2023-10-12T08:06:02.346Z,20.40
2023-10-12T08:08:39.749Z,20.50
2023-10-12T08:11:27.779Z,20.40
2023-10-12T08:13:57.436Z,20.40
2023-10-12T08:16:29.509Z,20.40
2023-10-12T08:19:15.917Z,20.30
2023-10-12T08:21:48.729Z,20.30
2023-10-12T08:24:24.989Z,20.20
2023-10-12T08:27:02.171Z,20.20
2023-10-12T08:29:47.988Z,20.20
2023-10-12T08:32:30.097Z,20.20
2023-10-12T08:35:17.993Z,20.20
2023-10-12T08:38:07.606Z,20.30
2023-10-12T08:40:46.276Z,20.30
2023-10-12T08:43:33.692Z,20.40
2023-10-12T08:46:08.203Z,20.40
2023-10-12T08:48:36.974Z,20.40
2023-10-12T08:51:11.033Z,20.50
2023-10-12T08:53:42.777Z,20.60
2023-10-12T08:56:13.831Z,20.70
2023-10-12T08:58:52.845Z,20.70
2023-10-12T09:01:25.456Z,20.80
2023-10-12T09:04:02.314Z,20.80
2023-10-12T09:06:47.319Z,20.90
2023-10-12T09:09:37.700Z,21.00
2023-10-12T09:12:12.594Z,21.00
2023-10-12T09:14:44.815Z,21.00
2023-10-12T09:17:28.958Z,21.10
2023-10-12T09:20:11.922Z,21.00
2023-10-12T09:22:41.768Z,21.00
2023-10-12T09:25:28.170Z,20.90
2023-10-12T09:27:57.284Z,20.80
2023-10-12T09:30:28.461Z,20.80
2023-10-12T09:32:58.480Z,20.80
2023-10-12T09:35:41.343Z,20.80
2023-10-12T09:38:10.155Z,20.90
2023-10-12T09:40:41.526Z,20.80
2023-10-12T09:43:14.119Z,20.80
2023-10-12T09:45:48.688Z,20.50
2023-10-12T09:48:25.956Z,20.90
2023-10-12T09:50:57.834Z,20.80
2023-10-12T09:53:38.421Z,20.90
2023-10-12T09:56:18.289Z,20.90
2023-10-12T09:58:53.249Z,20.80
2023-10-12T10:01:37.928Z,20.90
2023-10-12T10:04:28.858Z,20.90
2023-10-12T10:07:16.523Z,20.90
2023-10-12T10:09:47.598Z,20.90
2023-10-12T10:12:18.914Z,20.90
2023-10-12T10:14:53.022Z,20.90
2023-10-12T10:17:27.841Z,20.90
2023-10-12T10:20:41.570Z,20.80
2023-10-12T10:23:15.422Z,20.80
2023-10-12T10:26:00.015Z,20.80
2023-10-12T10:28:34.496Z,20.80
2023-10-12T10:31:02.888Z,20.80
2023-10-12T10:33:40.957Z,20.80
2023-10-12T10:36:16.019Z,20.90
2023-10-12T10:38:55.276Z,20.90
2023-10-12T10:41:39.927Z,21.00
2023-10-12T10:44:16.900Z,21.10
2023-10-12T10:46:55.556Z,21.10
2023-10-12T10:49:34.421Z,21.30
2023-10-12T10:52:15.369Z,21.30
2023-10-12T10:54:58.084Z,21.40
2023-10-12T10:57:33.404Z,21.30
2023-10-12T11:00:11.553Z,21.40
2023-10-12T11:02:42.008Z,21.40
2023-10-12T11:05:20.752Z,21.40
2023-10-12T11:07:52.300Z,21.50
2023-10-12T11:10:32.680Z,21.40
2023-10-12T11:13:02.296Z,21.40
2023-10-12T11:15:34.790Z,21.40
2023-10-12T11:18:08.774Z,21.40
2023-10-12T11:20:46.539Z,21.50
2023-10-12T11:23:16.316Z,21.40
2023-10-12T11:25:50.609Z,21.50
2023-10-12T11:28:23.577Z,21.40
2023-10-12T11:31:03.210Z,21.40
2023-10-12T11:33:37.682Z,21.30
2023-10-12T11:36:07.475Z,21.20
2023-10-12T11:38:35.705Z,21.20
2023-10-12T11:41:18.773Z,21.20
2023-10-12T11:43:50.828Z,21.10
2023-10-12T11:46:20.856Z,21.10
2023-10-12T11:49:05.471Z,21.20
2023-10-12T11:51:41.248Z,21.20
2023-10-12T11:54:22.394Z,21.10
2023-10-12T11:56:53.144Z,21.10
2023-10-12T11:59:28.501Z,21.10
2023-10-12T12:02:05.844Z,21.10
2023-10-12T12:04:47.020Z,21.00
2023-10-12T12:07:24.308Z,21.00
2023-10-12T12:10:02.034Z,21.00
2023-10-12T12:12:33.744Z,21.00
2023-10-12T12:15:02.178Z,21.00
2023-10-12T12:17:31.999Z,21.00
2023-10-12T12:20:00.362Z,21.00
2023-10-12T12:22:40.020Z,21.00
2023-10-12T12:25:19.940Z,21.00
2023-10-12T12:27:50.578Z,21.00
2023-10-12T12:33:17.057Z,21.00
2023-10-12T12:35:48.062Z,21.00
2023-10-12T12:38:45.073Z,21.00
2023-10-12T12:41:20.856Z,21.00
2023-10-12T12:43:50.042Z,21.00
2023-10-12T12:46:18.990Z,20.80
2023-10-12T12:48:52.350Z,20.80
2023-10-12T12:51:21.519Z,20.80
2023-10-12T12:53:51.601Z,20.70
2023-10-12T12:56:21.321Z,20.60
2023-10-12T12:58:50.998Z,20.60
2023-10-12T13:01:20.030Z,20.50
2023-10-12T13:03:56.374Z,20.50
2023-10-12T13:06:25.280Z,20.50
2023-10-12T13:08:53.975Z,20.50
2023-10-12T13:11:23.064Z,20.40
2023-10-12T13:13:51.433Z,20.40
2023-10-12T13:16:22.854Z,20.40
2023-10-12T13:18:52.720Z,20.50
2023-10-12T13:21:23.731Z,20.50
2023-10-12T13:23:53.045Z,20.50
2023-10-12T13:26:24.338Z,20.50
2023-10-12T13:28:54.832Z,20.60
2023-10-12T13:31:25.194Z,20.60
2023-10-12T13:33:58.344Z,20.60
2023-10-12T13:36:29.218Z,20.60
2023-10-12T13:38:57.677Z,20.60
2023-10-12T13:41:26.490Z,20.60
2023-10-12T13:43:54.824Z,20.60
2023-10-12T13:46:26.380Z,20.60
2023-10-12T13:48:54.804Z,20.60
2023-10-12T13:51:32.581Z,20.60
2023-10-12T13:54:03.090Z,20.60
2023-10-12T13:56:36.099Z,20.60
2023-10-12T13:59:06.476Z,20.60
2023-10-12T14:01:38.136Z,20.60
2023-10-12T14:04:27.509Z,20.60
2023-10-12T14:07:02.572Z,20.60
2023-10-12T14:09:32.733Z,20.60
2023-10-12T14:12:01.528Z,20.60
2023-10-12T14:14:30.319Z,20.50
2023-10-12T14:16:59.100Z,20.50
2023-10-12T14:19:29.690Z,20.50
2023-10-12T14:22:04.961Z,20.40
2023-10-12T14:24:35.512Z,20.50
2023-10-12T14:27:07.909Z,20.50
2023-10-12T14:29:37.443Z,20.50
2023-10-12T14:32:06.381Z,20.50
2023-10-12T14:34:35.254Z,20.50
2023-10-12T14:37:14.534Z,20.50
2023-10-12T14:39:43.213Z,20.50
2023-10-12T14:42:12.036Z,20.50
2023-10-12T14:44:40.936Z,20.60
2023-10-12T14:47:09.414Z,20.60
2023-10-12T14:49:44.742Z,20.70
2023-10-12T14:52:16.502Z,20.70
2023-10-12T14:54:55.928Z,20.70
2023-10-12T14:57:26.021Z,20.70
2023-10-12T14:59:54.423Z,20.70
2023-10-12T15:02:23.281Z,20.70
2023-10-12T15:04:52.550Z,20.60
2023-10-12T15:07:22.445Z,20.60
2023-10-12T15:09:51.105Z,20.60
2023-10-12T15:12:22.713Z,20.70
2023-10-12T15:14:55.549Z,20.70
2023-10-12T15:17:24.308Z,20.70
2023-10-12T15:19:52.760Z,20.80
2023-10-12T15:22:22.758Z,20.80
2023-10-12T15:24:51.585Z,20.80
2023-10-12T15:27:21.255Z,20.80
2023-10-12T15:29:49.520Z,20.80
2023-10-12T15:32:18.005Z,20.80
2023-10-12T15:34:46.411Z,20.80
2023-10-12T15:37:15.040Z,20.80
2023-10-12T15:40:15.846Z,20.80
2023-10-12T15:46:49.803Z,20.80
2023-10-12T15:49:29.180Z,20.90
2023-10-12T15:52:13.089Z,20.90
2023-10-12T15:58:53.491Z,20.90
2023-10-12T16:01:26.650Z,20.70
2023-10-12T16:04:21.996Z,20.70
2023-10-12T16:06:50.352Z,20.80
2023-10-12T16:09:25.391Z,20.80
2023-10-12T16:11:53.835Z,20.80
2023-10-12T16:14:27.107Z,20.80
2023-10-12T16:16:56.317Z,20.80
2023-10-12T16:19:26.304Z,20.80
2023-10-12T16:21:56.988Z,20.80
2023-10-12T16:24:25.301Z,20.80
2023-10-12T16:26:53.628Z,20.80
2023-10-12T16:29:44.960Z,20.90
2023-10-12T16:32:21.844Z,20.80
2023-10-12T16:34:51.263Z,20.80
2023-10-12T16:37:19.667Z,20.80
2023-10-12T16:39:49.039Z,20.80
2023-10-12T16:42:18.084Z,20.80
2023-10-12T16:44:49.278Z,20.90
2023-10-12T16:47:22.818Z,20.80
2023-10-12T16:49:51.419Z,20.90
2023-10-12T16:52:19.854Z,20.80
2023-10-12T16:54:48.409Z,20.80
2023-10-12T16:57:25.077Z,20.70
2023-10-12T16:59:54.997Z,20.70
2023-10-12T17:02:24.521Z,20.60
2023-10-12T17:04:55.099Z,20.50
2023-10-12T17:07:25.382Z,20.50
2023-10-12T17:09:54.052Z,20.40
2023-10-12T17:12:22.562Z,20.40
2023-10-12T17:14:51.070Z,20.30
2023-10-12T17:17:22.227Z,20.30
2023-10-12T17:19:51.282Z,20.20
2023-10-12T17:22:20.004Z,20.20
2023-10-12T17:24:49.333Z,20.10
2023-10-12T17:27:19.058Z,20.10
2023-10-12T17:29:48.233Z,20.10
2023-10-12T17:32:21.207Z,20.10
2023-10-12T17:34:51.052Z,20.10
2023-10-12T17:37:19.345Z,20.10
2023-10-12T17:39:49.273Z,20.10
2023-10-12T17:42:19.570Z,20.10
2023-10-12T17:44:49.180Z,20.10
2023-10-12T17:47:18.559Z,20.10
2023-10-12T17:49:51.304Z,20.10
2023-10-12T17:52:21.663Z,20.10
2023-10-12T17:54:49.901Z,20.20
2023-10-12T17:57:19.924Z,20.10
2023-10-12T17:59:48.919Z,20.10
2023-10-12T18:02:20.442Z,20.10
2023-10-12T18:04:50.287Z,20.10
2023-10-12T18:07:19.300Z,20.00
2023-10-12T18:09:48.084Z,19.90
2023-10-12T18:12:16.303Z,20.00
2023-10-12T18:14:44.537Z,19.90
2023-10-12T18:17:13.514Z,19.90
2023-10-12T18:19:42.104Z,19.70
2023-10-12T18:22:13.187Z,19.80
2023-10-12T18:24:42.057Z,19.80
2023-10-12T18:27:21.332Z,19.80
2023-10-12T18:29:49.959Z,19.60
2023-10-12T18:32:24.623Z,19.80
2023-10-12T18:34:56.459Z,19.90
2023-10-12T18:37:26.610Z,19.80
2023-10-12T18:40:00.013Z,19.80
2023-10-12T18:42:41.616Z,19.80
2023-10-12T18:45:36.646Z,19.90
2023-10-12T18:48:31.109Z,19.80
2023-10-12T22:07:41.041Z,19.20
2023-10-12T22:13:23.441Z,19.20
2023-10-12T23:12:50.885Z,19.00
2023-10-12T23:15:19.605Z,19.00
2023-10-12T23:18:03.345Z,19.00
2023-10-12T23:23:28.742Z,19.00
2023-10-12T23:26:02.124Z,19.00
2023-10-12T23:28:32.180Z,19.00
2023-10-12T23:31:14.250Z,19.00
2023-10-12T23:33:46.276Z,19.00
2023-10-12T23:36:17.065Z,19.10
2023-10-12T23:39:04.372Z,19.00
2023-10-12T23:42:09.424Z,19.00
2023-10-12T23:48:38.384Z,19.20
2023-10-12T23:51:32.029Z,19.10
2023-10-12T23:54:28.390Z,19.00
2023-10-12T23:57:25.594Z,19.10
